createdAt,value
2022-12-18T00:01:50.270Z,42.29
2022-12-18T00:02:50.278Z,41.37
2022-12-18T00:03:50.322Z,40.37
2022-12-18T00:04:50.199Z,40.43
2022-12-18T00:05:51.864Z,41.13
2022-12-18T00:06:50.236Z,40.93
2022-12-18T00:07:50.266Z,41.86
2022-12-18T00:09:50.346Z,40.14
2022-12-18T00:10:50.174Z,41.35
2022-12-18T00:12:50.187Z,41.35
2022-12-18T00:13:50.201Z,40.09
2022-12-18T00:14:50.256Z,41.11
2022-12-18T00:15:50.321Z,40.18
2022-12-18T00:16:50.254Z,42.29
2022-12-18T00:17:50.191Z,40.97
2022-12-18T00:19:50.281Z,42.07
2022-12-18T00:20:50.243Z,39.88
2022-12-18T00:21:50.220Z,39.73
2022-12-18T00:22:50.194Z,39.90
2022-12-18T00:23:50.241Z,41.56
2022-12-18T00:24:50.277Z,40.27
2022-12-18T00:25:50.213Z,40.15
2022-12-18T00:26:50.223Z,41.02
2022-12-18T00:27:50.252Z,39.76
2022-12-18T00:30:50.265Z,40.13
2022-12-18T00:31:50.342Z,41.61
2022-12-18T00:32:50.299Z,43.17
2022-12-18T00:33:54.076Z,41.08
2022-12-18T00:35:50.246Z,40.34
2022-12-18T00:36:50.283Z,41.58
2022-12-18T00:37:50.275Z,40.10
2022-12-18T00:38:50.250Z,40.12
2022-12-18T00:39:50.276Z,41.75
2022-12-18T00:41:50.260Z,41.05
2022-12-18T00:42:52.113Z,41.10
2022-12-18T00:44:50.255Z,44.04
2022-12-18T00:45:50.416Z,42.53
2022-12-18T00:46:50.294Z,42.35
2022-12-18T00:47:50.312Z,42.36
2022-12-18T00:48:50.285Z,42.28
2022-12-18T00:49:50.304Z,42.20
2022-12-18T00:50:50.301Z,42.52
2022-12-18T00:51:50.300Z,41.10
2022-12-18T00:52:50.338Z,41.76
2022-12-18T00:53:50.318Z,42.87
2022-12-18T00:54:50.314Z,42.90
2022-12-18T00:55:50.307Z,41.97
2022-12-18T00:56:50.327Z,43.27
2022-12-18T00:57:50.326Z,41.62
2022-12-18T00:58:50.287Z,43.09
2022-12-18T00:59:50.324Z,42.51
2022-12-18T01:00:50.476Z,44.37
2022-12-18T01:01:50.464Z,40.75
2022-12-18T01:02:50.520Z,41.03
2022-12-18T01:03:50.294Z,42.26
2022-12-18T01:04:50.298Z,41.85
2022-12-18T01:05:50.384Z,42.05
2022-12-18T01:06:50.296Z,42.42
2022-12-18T01:07:50.306Z,41.77
2022-12-18T01:08:50.342Z,40.67
2022-12-18T01:09:50.356Z,41.25
2022-12-18T01:10:50.405Z,41.54
2022-12-18T01:12:50.331Z,41.76
2022-12-18T01:13:50.407Z,39.75
2022-12-18T01:15:50.325Z,40.35
2022-12-18T01:16:50.402Z,41.93
2022-12-18T01:17:50.369Z,41.62
2022-12-18T01:18:50.388Z,41.66
2022-12-18T01:19:52.404Z,41.20
2022-12-18T01:20:50.377Z,42.63
2022-12-18T01:21:50.391Z,44.39
2022-12-18T01:25:50.439Z,41.29
2022-12-18T01:26:50.384Z,42.81
2022-12-18T01:28:50.427Z,40.55
2022-12-18T01:32:50.417Z,41.94
2022-12-18T01:33:50.406Z,42.33
2022-12-18T01:34:50.441Z,42.41
2022-12-18T01:35:50.406Z,42.84
2022-12-18T01:39:50.418Z,44.57
2022-12-18T01:40:50.464Z,44.03
2022-12-18T01:41:50.455Z,41.35
2022-12-18T01:43:50.445Z,43.91
2022-12-18T01:46:50.462Z,43.73
2022-12-18T01:47:50.382Z,42.72
2022-12-18T01:48:50.467Z,44.89
2022-12-18T01:50:50.467Z,41.64
2022-12-18T01:53:50.413Z,43.28
2022-12-18T01:54:50.488Z,41.80
2022-12-18T01:55:50.461Z,44.32
2022-12-18T01:56:52.630Z,44.05
2022-12-18T01:58:50.434Z,45.04
2022-12-18T01:59:50.475Z,44.50
2022-12-18T02:02:50.578Z,42.11
2022-12-18T02:04:50.511Z,44.85
2022-12-18T02:06:50.484Z,45.54
2022-12-18T02:09:50.543Z,44.50
2022-12-18T02:11:50.474Z,46.24
2022-12-18T02:12:50.476Z,42.03
2022-12-18T02:14:50.500Z,43.77
2022-12-18T02:16:50.564Z,45.88
2022-12-18T02:19:50.551Z,44.33
2022-12-18T02:21:50.544Z,44.17
2022-12-18T02:22:50.557Z,43.93
2022-12-18T02:23:50.488Z,45.67
2022-12-18T02:24:50.494Z,43.14
2022-12-18T02:25:50.508Z,46.21
2022-12-18T02:26:50.492Z,43.61
2022-12-18T02:27:50.502Z,44.70
2022-12-18T02:28:50.528Z,43.75
2022-12-18T02:29:55.980Z,46.17
2022-12-18T02:30:50.654Z,44.44
2022-12-18T02:32:50.569Z,44.24
2022-12-18T02:33:52.870Z,44.71
2022-12-18T02:34:50.552Z,44.65
2022-12-18T02:35:50.532Z,43.72
2022-12-18T02:36:50.547Z,45.20
2022-12-18T02:37:50.560Z,44.72
2022-12-18T02:38:50.535Z,47.61
2022-12-18T02:40:50.598Z,43.83
2022-12-18T02:41:50.534Z,43.87
2022-12-18T02:42:50.565Z,43.92
2022-12-18T02:43:50.574Z,46.66
2022-12-18T02:45:50.708Z,45.15
2022-12-18T02:46:50.600Z,44.92
2022-12-18T02:47:50.594Z,44.16
2022-12-18T02:49:50.564Z,45.47
2022-12-18T02:50:50.600Z,45.68
2022-12-18T02:51:50.585Z,44.47
2022-12-18T02:52:50.625Z,44.17
2022-12-18T02:53:50.613Z,43.98
2022-12-18T02:54:51.444Z,43.76
2022-12-18T02:57:50.570Z,45.18
2022-12-18T02:58:50.627Z,45.08
2022-12-18T03:00:50.705Z,43.69
2022-12-18T03:01:50.729Z,44.87
2022-12-18T03:02:50.724Z,44.25
2022-12-18T03:03:50.607Z,45.43
2022-12-18T03:04:50.610Z,45.44
2022-12-18T03:05:50.618Z,45.25
2022-12-18T03:07:50.625Z,45.94
2022-12-18T03:08:50.680Z,46.82
2022-12-18T03:09:50.630Z,45.83
2022-12-18T03:10:53.075Z,44.06
2022-12-18T03:11:50.608Z,44.80
2022-12-18T03:13:50.668Z,45.49
2022-12-18T03:14:50.616Z,44.92
2022-12-18T03:15:50.601Z,48.15
2022-12-18T03:16:50.635Z,46.95
2022-12-18T03:17:50.606Z,46.84
2022-12-18T03:18:50.689Z,47.84
2022-12-18T03:19:50.660Z,45.21
2022-12-18T03:20:50.627Z,46.34
2022-12-18T03:25:50.650Z,43.88
2022-12-18T03:27:50.674Z,44.74
2022-12-18T03:28:50.691Z,46.03
2022-12-18T03:29:50.647Z,46.67
2022-12-18T03:31:50.680Z,45.69
2022-12-18T03:34:50.649Z,43.05
2022-12-18T03:37:50.715Z,46.16
2022-12-18T03:38:50.730Z,44.93
2022-12-18T03:39:50.673Z,42.45
2022-12-18T03:40:50.717Z,45.98
2022-12-18T03:43:50.760Z,44.35
2022-12-18T03:45:50.712Z,47.41
2022-12-18T03:46:50.747Z,45.63
2022-12-18T03:48:50.719Z,47.03
2022-12-18T03:49:50.699Z,46.52
2022-12-18T03:52:50.734Z,46.38
2022-12-18T03:53:50.780Z,46.31
2022-12-18T03:54:50.733Z,44.56
2022-12-18T03:55:50.756Z,47.31
2022-12-18T03:56:50.782Z,44.92
2022-12-18T03:57:50.757Z,47.72
2022-12-18T03:58:50.796Z,48.26
2022-12-18T03:59:50.711Z,45.81
2022-12-18T04:01:50.913Z,47.12
2022-12-18T04:02:50.764Z,44.67
2022-12-18T04:03:50.823Z,47.96
2022-12-18T04:05:50.749Z,48.78
2022-12-18T04:06:50.757Z,45.33
2022-12-18T04:07:50.727Z,48.49
2022-12-18T04:08:50.746Z,48.92
2022-12-18T04:09:50.772Z,46.28
2022-12-18T04:11:50.823Z,48.66
2022-12-18T04:12:50.748Z,44.17
2022-12-18T04:13:50.733Z,45.63
2022-12-18T04:14:50.796Z,45.76
2022-12-18T04:15:50.866Z,44.81
2022-12-18T04:17:50.760Z,47.46
2022-12-18T04:18:50.760Z,47.14
2022-12-18T04:19:50.793Z,45.84
2022-12-18T04:20:50.792Z,47.11
2022-12-18T04:21:50.783Z,46.23
2022-12-18T04:22:50.800Z,49.40
2022-12-18T04:23:50.811Z,47.45
2022-12-18T04:24:53.581Z,45.88
2022-12-18T04:26:50.822Z,47.28
2022-12-18T04:27:50.786Z,46.15
2022-12-18T04:28:50.824Z,44.99
2022-12-18T04:29:50.857Z,44.97
2022-12-18T04:30:50.911Z,46.88
2022-12-18T04:31:50.874Z,47.45
2022-12-18T04:32:52.367Z,46.00
2022-12-18T04:33:50.814Z,44.89
2022-12-18T04:34:50.866Z,46.90
2022-12-18T04:35:50.806Z,45.92
2022-12-18T04:36:50.827Z,46.37
2022-12-18T04:37:50.796Z,45.63
2022-12-18T04:38:50.838Z,48.86
2022-12-18T04:39:50.844Z,47.76
2022-12-18T04:40:50.859Z,47.54
2022-12-18T04:41:50.882Z,47.13
2022-12-18T04:42:50.824Z,47.82
2022-12-18T04:43:50.861Z,44.96
2022-12-18T04:44:50.855Z,47.43
2022-12-18T04:45:50.873Z,48.00
2022-12-18T04:48:50.843Z,48.57
2022-12-18T04:49:50.895Z,47.61
2022-12-18T04:50:50.847Z,44.83
2022-12-18T04:51:50.917Z,45.86
2022-12-18T04:54:50.937Z,44.18
2022-12-18T04:55:50.868Z,46.83
2022-12-18T04:56:50.916Z,47.60
2022-12-18T04:57:50.877Z,45.67
2022-12-18T04:59:50.957Z,45.08
2022-12-18T05:00:50.856Z,46.48
2022-12-18T05:01:53.923Z,43.83
2022-12-18T05:02:51.073Z,47.74
2022-12-18T05:03:50.949Z,45.71
2022-12-18T05:04:50.932Z,44.92
2022-12-18T05:05:50.876Z,45.32
2022-12-18T05:06:50.944Z,43.83
2022-12-18T05:07:50.923Z,46.45
2022-12-18T05:08:50.918Z,48.36
2022-12-18T05:09:50.948Z,45.39
2022-12-18T05:10:50.879Z,44.93
2022-12-18T05:12:50.877Z,45.67
2022-12-18T05:13:50.909Z,47.12
2022-12-18T05:14:50.978Z,48.08
2022-12-18T05:15:51.084Z,44.70
2022-12-18T05:16:50.923Z,45.87
2022-12-18T05:17:50.955Z,46.35
2022-12-18T05:18:50.939Z,48.46
2022-12-18T05:19:50.970Z,47.26
2022-12-18T05:20:50.942Z,47.21
2022-12-18T05:21:50.901Z,44.80
2022-12-18T05:22:50.974Z,46.89
2022-12-18T05:23:50.902Z,48.24
2022-12-18T05:24:50.955Z,49.66
2022-12-18T05:25:50.935Z,48.19
2022-12-18T05:27:50.991Z,51.83
2022-12-18T05:28:50.943Z,47.04
2022-12-18T05:29:50.963Z,47.73
2022-12-18T05:30:50.987Z,50.97
2022-12-18T05:31:50.968Z,46.41
2022-12-18T05:34:50.934Z,48.95
2022-12-18T05:36:50.952Z,48.63
2022-12-18T05:37:50.986Z,45.05
2022-12-18T05:38:54.104Z,47.68
2022-12-18T05:39:50.939Z,46.48
2022-12-18T05:40:51.030Z,48.17
2022-12-18T05:41:50.992Z,44.74
2022-12-18T05:42:50.995Z,45.77
2022-12-18T05:43:51.013Z,48.54
2022-12-18T05:44:50.984Z,48.49
2022-12-18T05:45:51.009Z,47.31
2022-12-18T05:46:51.031Z,49.14
2022-12-18T05:47:51.032Z,50.97
2022-12-18T05:48:51.004Z,46.18
2022-12-18T05:49:50.983Z,49.33
2022-12-18T05:50:51.046Z,50.48
2022-12-18T05:51:50.975Z,48.99
2022-12-18T05:52:51.016Z,47.67
2022-12-18T05:53:51.021Z,46.58
2022-12-18T05:54:51.021Z,45.99
2022-12-18T05:55:51.021Z,47.36
2022-12-18T05:56:51.031Z,47.91
2022-12-18T05:58:51.031Z,49.90
2022-12-18T05:59:51.029Z,46.85
2022-12-18T06:00:51.077Z,47.16
2022-12-18T06:01:51.154Z,47.32
2022-12-18T06:02:51.205Z,48.42
2022-12-18T06:03:51.078Z,52.44
2022-12-18T06:04:51.040Z,47.59
2022-12-18T06:05:51.089Z,46.66
2022-12-18T06:06:51.027Z,50.65
2022-12-18T06:07:51.106Z,48.13
2022-12-18T06:08:51.057Z,46.52
2022-12-18T06:09:51.041Z,51.23
2022-12-18T06:10:51.091Z,48.33
2022-12-18T06:11:51.015Z,48.73
2022-12-18T06:12:51.012Z,47.47
2022-12-18T06:13:56.158Z,48.31
2022-12-18T06:14:51.071Z,44.88
2022-12-18T06:15:54.433Z,47.97
2022-12-18T06:16:51.068Z,47.07
2022-12-18T06:17:51.033Z,47.16
2022-12-18T06:18:51.063Z,50.11
2022-12-18T06:19:51.038Z,48.74
2022-12-18T06:20:51.065Z,46.76
2022-12-18T06:21:51.022Z,49.16
2022-12-18T06:22:51.110Z,46.02
2022-12-18T06:23:51.084Z,46.11
2022-12-18T06:24:51.138Z,43.74
2022-12-18T06:25:51.118Z,43.81
2022-12-18T06:26:51.097Z,45.36
2022-12-18T06:27:51.057Z,46.04
2022-12-18T06:28:51.092Z,43.33
2022-12-18T06:29:51.105Z,43.98
2022-12-18T06:30:51.129Z,46.44
2022-12-18T06:31:51.259Z,45.78
2022-12-18T06:32:56.373Z,45.86
2022-12-18T06:33:51.098Z,48.36
2022-12-18T06:34:51.071Z,46.10
2022-12-18T06:35:51.108Z,45.94
2022-12-18T06:36:51.066Z,44.48
2022-12-18T06:37:51.147Z,45.43
2022-12-18T06:38:51.120Z,46.10
2022-12-18T06:39:51.134Z,47.89
2022-12-18T06:40:51.120Z,47.15
2022-12-18T06:41:51.081Z,48.50
2022-12-18T06:42:51.154Z,46.75
2022-12-18T06:43:52.244Z,47.76
2022-12-18T06:44:51.101Z,45.11
2022-12-18T06:45:51.170Z,45.84
2022-12-18T06:46:51.107Z,45.58
2022-12-18T06:47:51.137Z,46.51
2022-12-18T06:48:51.147Z,46.49
2022-12-18T06:49:51.137Z,45.33
2022-12-18T06:50:51.142Z,47.11
2022-12-18T06:51:51.110Z,44.39
2022-12-18T06:52:54.635Z,44.93
2022-12-18T06:53:51.162Z,44.59
2022-12-18T06:54:51.131Z,45.84
2022-12-18T06:55:51.150Z,47.66
2022-12-18T06:57:51.127Z,46.59
2022-12-18T06:58:51.164Z,44.85
2022-12-18T06:59:51.136Z,48.14
2022-12-18T07:00:51.273Z,45.03
2022-12-18T07:01:51.327Z,44.63
2022-12-18T07:02:51.416Z,44.91
2022-12-18T07:03:51.212Z,44.97
2022-12-18T07:04:51.194Z,46.33
2022-12-18T07:05:51.193Z,45.19
2022-12-18T07:07:51.185Z,46.01
2022-12-18T07:08:51.232Z,46.91
2022-12-18T07:10:55.903Z,44.43
2022-12-18T07:11:51.212Z,47.60
2022-12-18T07:12:51.195Z,48.42
2022-12-18T07:13:51.205Z,45.03
2022-12-18T07:14:51.209Z,46.36
2022-12-18T07:15:51.263Z,46.52
2022-12-18T07:16:51.310Z,43.96
2022-12-18T07:17:51.172Z,44.42
2022-12-18T07:18:51.240Z,46.48
2022-12-18T07:19:51.180Z,46.37
2022-12-18T07:20:51.213Z,45.00
2022-12-18T07:21:51.223Z,46.18
2022-12-18T07:22:56.143Z,45.08
2022-12-18T07:23:51.275Z,45.70
2022-12-18T07:24:51.224Z,44.88
2022-12-18T07:25:51.235Z,43.21
2022-12-18T07:26:51.255Z,44.64
2022-12-18T07:27:51.209Z,44.58
2022-12-18T07:28:51.243Z,45.13
2022-12-18T07:29:54.867Z,40.81
2022-12-18T07:30:51.224Z,46.34
2022-12-18T07:31:51.342Z,45.37
2022-12-18T07:32:51.212Z,42.33
2022-12-18T07:33:51.261Z,44.52
2022-12-18T07:34:51.247Z,43.87
2022-12-18T07:35:51.217Z,44.46
2022-12-18T07:36:51.289Z,45.52
2022-12-18T07:37:51.254Z,45.60
2022-12-18T07:38:51.276Z,45.54
2022-12-18T07:39:51.310Z,46.21
2022-12-18T07:40:51.283Z,44.94
2022-12-18T07:41:51.291Z,47.60
2022-12-18T07:42:51.236Z,45.16
2022-12-18T07:43:51.249Z,45.18
2022-12-18T07:44:51.315Z,42.23
2022-12-18T07:46:51.337Z,45.29
2022-12-18T07:47:51.252Z,44.21
2022-12-18T07:48:51.299Z,44.20
2022-12-18T07:50:51.300Z,45.56
2022-12-18T07:51:51.311Z,48.11
2022-12-18T07:52:51.303Z,44.05
2022-12-18T07:53:52.277Z,44.28
2022-12-18T07:54:51.290Z,44.78
2022-12-18T07:56:18.354Z,41.70
2022-12-18T07:57:54.145Z,42.82
2022-12-18T07:58:51.317Z,43.89
2022-12-18T07:59:51.309Z,43.13
2022-12-18T08:00:51.300Z,43.88
2022-12-18T08:01:51.422Z,43.79
2022-12-18T08:02:51.411Z,42.05
2022-12-18T08:03:52.108Z,41.41
2022-12-18T08:05:51.341Z,43.12
2022-12-18T08:06:55.166Z,40.65
2022-12-18T08:07:51.342Z,42.63
2022-12-18T08:08:51.331Z,42.84
2022-12-18T08:09:51.423Z,41.29
2022-12-18T08:10:51.298Z,41.57
2022-12-18T08:11:51.348Z,40.64
2022-12-18T08:12:51.404Z,43.51
2022-12-18T08:13:51.348Z,42.35
2022-12-18T08:14:51.348Z,40.77
2022-12-18T08:15:51.356Z,42.86
2022-12-18T08:16:51.377Z,42.96
2022-12-18T08:17:51.355Z,42.79
2022-12-18T08:18:51.311Z,42.27
2022-12-18T08:19:51.380Z,41.18
2022-12-18T08:20:51.382Z,41.85
2022-12-18T08:21:51.373Z,45.07
2022-12-18T08:22:51.383Z,42.33
2022-12-18T08:23:51.801Z,41.80
2022-12-18T08:24:51.410Z,40.42
2022-12-18T08:25:51.369Z,43.87
2022-12-18T08:28:51.349Z,42.72
2022-12-18T08:29:51.438Z,41.05
2022-12-18T08:31:51.428Z,41.94
2022-12-18T08:32:51.429Z,42.19
2022-12-18T08:33:51.419Z,42.06
2022-12-18T08:34:51.399Z,40.77
2022-12-18T08:36:51.372Z,43.02
2022-12-18T08:37:51.397Z,41.69
2022-12-18T08:38:51.423Z,42.05
2022-12-18T08:39:51.393Z,41.33
2022-12-18T08:40:51.378Z,41.98
2022-12-18T08:41:51.386Z,41.84
2022-12-18T08:42:51.409Z,41.94
2022-12-18T08:43:55.386Z,43.13
2022-12-18T08:44:51.374Z,42.59
2022-12-18T08:45:51.457Z,40.54
2022-12-18T08:46:51.422Z,41.65
2022-12-18T08:47:51.468Z,44.62
2022-12-18T08:48:51.454Z,40.57
2022-12-18T08:49:51.439Z,42.42
2022-12-18T08:50:51.418Z,44.00
2022-12-18T08:51:51.387Z,43.03
2022-12-18T08:52:51.464Z,44.09
2022-12-18T08:53:51.435Z,42.93
2022-12-18T08:54:51.442Z,42.85
2022-12-18T08:55:51.493Z,45.32
2022-12-18T08:56:51.435Z,43.10
2022-12-18T08:57:51.432Z,43.52
2022-12-18T08:58:51.449Z,40.79
2022-12-18T08:59:51.408Z,40.70
2022-12-18T09:00:51.681Z,43.32
2022-12-18T09:01:51.531Z,41.67
2022-12-18T09:02:51.739Z,43.90
2022-12-18T09:03:51.497Z,41.32
2022-12-18T09:04:57.122Z,42.30
2022-12-18T09:05:51.482Z,40.46
2022-12-18T09:07:51.468Z,42.54
2022-12-18T09:08:51.510Z,40.74
2022-12-18T09:09:51.459Z,40.02
2022-12-18T09:10:51.503Z,39.59
2022-12-18T09:11:51.525Z,39.89
2022-12-18T09:12:51.481Z,38.76
2022-12-18T09:13:51.457Z,38.60
2022-12-18T09:14:51.474Z,39.63
2022-12-18T09:15:51.480Z,38.67
2022-12-18T09:16:51.509Z,37.06
2022-12-18T09:17:51.517Z,36.57
2022-12-18T09:18:51.526Z,37.52
2022-12-18T09:19:51.475Z,36.84
2022-12-18T09:21:51.521Z,37.01
2022-12-18T09:22:51.489Z,35.53
2022-12-18T09:23:51.503Z,35.68
2022-12-18T09:24:51.533Z,36.59
2022-12-18T09:25:51.577Z,36.44
2022-12-18T09:26:56.138Z,38.28
2022-12-18T09:27:51.497Z,39.46
2022-12-18T09:28:51.552Z,36.26
2022-12-18T09:29:51.536Z,35.83
2022-12-18T09:30:51.613Z,38.38
2022-12-18T09:31:51.499Z,37.02
2022-12-18T09:32:51.493Z,37.29
2022-12-18T09:33:51.549Z,33.91
2022-12-18T09:34:51.509Z,36.82
2022-12-18T09:35:51.538Z,37.54
2022-12-18T09:36:51.557Z,39.81
2022-12-18T09:37:51.555Z,39.30
2022-12-18T09:38:51.552Z,37.33
2022-12-18T09:39:51.578Z,36.46
2022-12-18T09:40:51.544Z,36.81
2022-12-18T09:41:52.185Z,36.89
2022-12-18T09:42:51.551Z,35.53
2022-12-18T09:43:51.611Z,36.16
2022-12-18T09:44:51.631Z,39.12
2022-12-18T09:45:51.575Z,35.52
2022-12-18T09:46:51.625Z,37.60
2022-12-18T09:47:51.575Z,36.71
2022-12-18T09:48:51.601Z,37.40
2022-12-18T09:49:51.589Z,36.41
2022-12-18T09:50:51.573Z,36.71
2022-12-18T09:51:51.622Z,36.34
2022-12-18T09:52:51.574Z,40.13
2022-12-18T09:53:51.636Z,38.13
2022-12-18T09:55:51.625Z,36.79
2022-12-18T09:56:51.633Z,36.44
2022-12-18T09:57:55.878Z,37.00
2022-12-18T09:59:51.597Z,37.17
2022-12-18T10:01:51.864Z,40.29
2022-12-18T10:02:51.779Z,35.88
2022-12-18T10:03:51.574Z,36.78
2022-12-18T10:04:51.633Z,37.70
2022-12-18T10:05:51.602Z,38.02
2022-12-18T10:07:51.622Z,36.55
2022-12-18T10:09:51.660Z,37.51
2022-12-18T10:10:51.629Z,34.34
2022-12-18T10:12:51.618Z,38.15
2022-12-18T10:13:51.614Z,35.80
2022-12-18T10:14:51.671Z,38.34
2022-12-18T10:15:51.740Z,36.95
2022-12-18T10:16:51.675Z,36.86
2022-12-18T10:17:51.673Z,36.98
2022-12-18T10:18:51.685Z,37.00
2022-12-18T10:19:51.663Z,35.90
2022-12-18T10:20:51.665Z,37.96
2022-12-18T10:21:51.642Z,35.98
2022-12-18T10:23:51.665Z,38.36
2022-12-18T10:24:51.717Z,33.81
2022-12-18T10:25:51.692Z,36.45
2022-12-18T10:27:51.636Z,37.83
2022-12-18T10:28:51.667Z,34.36
2022-12-18T10:29:51.699Z,35.52
2022-12-18T10:30:51.710Z,35.75
2022-12-18T10:33:51.700Z,35.33
2022-12-18T10:35:00.425Z,35.41
2022-12-18T10:35:51.693Z,35.81
2022-12-18T10:37:51.713Z,37.86
2022-12-18T10:38:51.642Z,36.78
2022-12-18T10:39:51.740Z,36.54
2022-12-18T10:41:51.668Z,36.48
2022-12-18T10:42:51.687Z,37.78
2022-12-18T10:43:51.699Z,36.72
2022-12-18T10:44:51.725Z,35.34
2022-12-18T10:45:51.679Z,37.02
2022-12-18T10:46:51.816Z,37.58
2022-12-18T10:47:51.745Z,36.01
2022-12-18T10:48:51.692Z,40.96
2022-12-18T10:49:51.715Z,39.45
2022-12-18T10:51:10.347Z,39.38
2022-12-18T10:51:51.672Z,37.11
2022-12-18T10:52:51.711Z,36.79
2022-12-18T10:54:51.723Z,41.27
2022-12-18T10:55:51.693Z,36.76
2022-12-18T10:56:51.696Z,35.20
2022-12-18T10:57:51.767Z,38.94
2022-12-18T10:58:51.735Z,38.28
2022-12-18T10:59:51.726Z,38.81
2022-12-18T11:00:51.736Z,39.95
2022-12-18T11:01:51.874Z,36.62
2022-12-18T11:02:52.059Z,37.81
2022-12-18T11:03:51.846Z,38.29
2022-12-18T11:04:51.774Z,36.30
2022-12-18T11:05:51.742Z,36.29
2022-12-18T11:06:51.757Z,37.13
2022-12-18T11:07:51.785Z,35.32
2022-12-18T11:08:52.038Z,40.82
2022-12-18T11:09:51.803Z,40.49
2022-12-18T11:10:51.765Z,41.48
2022-12-18T11:11:51.780Z,40.34
2022-12-18T11:12:51.755Z,40.52
2022-12-18T11:13:51.725Z,38.54
2022-12-18T11:15:51.848Z,40.11
2022-12-18T11:17:24.179Z,40.89
2022-12-18T11:17:51.768Z,40.87
2022-12-18T11:18:51.794Z,39.61
2022-12-18T11:19:51.814Z,39.76
2022-12-18T11:20:56.908Z,41.85
2022-12-18T11:21:51.748Z,40.88
2022-12-18T11:22:51.822Z,36.39
2022-12-18T11:23:51.802Z,36.29
2022-12-18T11:25:14.954Z,38.82
2022-12-18T11:26:57.798Z,35.74
2022-12-18T11:27:51.807Z,37.67
2022-12-18T11:28:51.792Z,37.22
2022-12-18T11:29:52.021Z,37.14
2022-12-18T11:30:51.867Z,38.49
2022-12-18T11:31:51.770Z,38.40
2022-12-18T11:32:51.770Z,37.76
2022-12-18T11:34:19.662Z,37.92
2022-12-18T11:34:57.358Z,40.73
2022-12-18T11:35:51.871Z,39.62
2022-12-18T11:36:51.830Z,39.69
2022-12-18T11:37:51.839Z,35.66
2022-12-18T11:38:51.863Z,37.70
2022-12-18T11:39:51.832Z,37.35
2022-12-18T11:40:51.861Z,38.97
2022-12-18T11:41:51.856Z,38.67
2022-12-18T11:42:51.840Z,38.10
2022-12-18T11:43:51.872Z,39.59
2022-12-18T11:44:51.849Z,37.81
2022-12-18T11:45:52.345Z,36.67
2022-12-18T11:46:51.957Z,37.61
2022-12-18T11:47:51.853Z,41.15
2022-12-18T11:48:51.908Z,39.79
2022-12-18T11:49:51.866Z,40.10
2022-12-18T11:50:51.851Z,40.29
2022-12-18T11:51:51.853Z,38.90
2022-12-18T11:52:57.309Z,37.14
2022-12-18T11:53:51.861Z,37.22
2022-12-18T11:54:51.897Z,37.71
2022-12-18T11:55:51.816Z,39.37
2022-12-18T11:56:51.842Z,36.24
2022-12-18T11:57:51.831Z,36.96
2022-12-18T11:58:51.924Z,39.26
2022-12-18T11:59:51.878Z,38.33
2022-12-18T12:00:51.880Z,39.15
2022-12-18T12:02:51.977Z,38.89
2022-12-18T12:03:52.007Z,38.58
2022-12-18T12:04:51.906Z,38.43
2022-12-18T12:06:51.902Z,39.33
2022-12-18T12:07:51.873Z,39.29
2022-12-18T12:08:51.900Z,39.91
2022-12-18T12:09:51.862Z,37.06
2022-12-18T12:10:51.898Z,37.56
2022-12-18T12:11:51.959Z,37.39
2022-12-18T12:12:51.878Z,37.73
2022-12-18T12:13:51.904Z,35.18
2022-12-18T12:14:51.879Z,38.96
2022-12-18T12:15:51.940Z,38.34
2022-12-18T12:16:51.923Z,38.02
2022-12-18T12:17:51.890Z,40.65
2022-12-18T12:18:51.927Z,39.57
2022-12-18T12:19:51.924Z,36.34
2022-12-18T12:21:51.943Z,37.72
2022-12-18T12:22:52.533Z,36.01
2022-12-18T12:24:51.936Z,36.65
2022-12-18T12:25:51.936Z,35.43
2022-12-18T12:26:51.943Z,38.50
2022-12-18T12:27:51.966Z,38.93
2022-12-18T12:28:51.969Z,40.00
2022-12-18T12:30:51.918Z,38.07
2022-12-18T12:31:52.036Z,37.31
2022-12-18T12:32:51.943Z,38.71
2022-12-18T12:34:57.667Z,42.45
2022-12-18T12:35:51.935Z,39.38
2022-12-18T12:36:52.032Z,39.86
2022-12-18T12:37:51.962Z,38.56
2022-12-18T12:39:52.007Z,38.23
2022-12-18T12:40:57.083Z,35.92
2022-12-18T12:41:51.978Z,39.09
2022-12-18T12:42:52.025Z,38.46
2022-12-18T12:43:52.189Z,43.01
2022-12-18T12:44:56.424Z,40.83
2022-12-18T12:45:52.063Z,40.70
2022-12-18T12:46:51.993Z,40.13
2022-12-18T12:47:52.049Z,42.80
2022-12-18T12:48:51.956Z,42.37
2022-12-18T12:49:52.036Z,38.41
2022-12-18T12:50:51.945Z,36.30
2022-12-18T12:51:52.012Z,38.68
2022-12-18T12:52:52.008Z,39.38
2022-12-18T12:53:51.977Z,34.97
2022-12-18T12:54:52.013Z,38.34
2022-12-18T12:55:52.010Z,37.46
2022-12-18T12:56:51.991Z,38.73
2022-12-18T12:57:52.006Z,37.83
2022-12-18T12:58:52.023Z,37.05
2022-12-18T13:00:52.159Z,36.40
2022-12-18T13:01:52.132Z,37.78
2022-12-18T13:02:52.059Z,36.52
2022-12-18T13:03:52.026Z,38.96
2022-12-18T13:04:52.029Z,41.35
2022-12-18T13:05:52.032Z,39.12
2022-12-18T13:06:52.042Z,39.46
2022-12-18T13:07:52.074Z,37.43
2022-12-18T13:08:52.048Z,39.47
2022-12-18T13:09:52.047Z,39.00
2022-12-18T13:10:52.079Z,37.54
2022-12-18T13:11:57.811Z,41.50
2022-12-18T13:12:52.063Z,36.01
2022-12-18T13:13:52.062Z,36.75
2022-12-18T13:14:52.081Z,34.22
2022-12-18T13:15:52.098Z,38.51
2022-12-18T13:16:52.020Z,37.36
2022-12-18T13:17:52.107Z,37.75
2022-12-18T13:18:52.027Z,39.71
2022-12-18T13:19:52.034Z,40.25
2022-12-18T13:20:54.399Z,39.14
2022-12-18T13:21:52.091Z,36.76
2022-12-18T13:22:52.076Z,36.73
2022-12-18T13:23:52.074Z,39.01
2022-12-18T13:24:52.061Z,38.45
2022-12-18T13:25:52.118Z,38.36
2022-12-18T13:26:52.044Z,36.16
2022-12-18T13:27:52.131Z,36.60
2022-12-18T13:28:52.055Z,39.46
2022-12-18T13:29:52.056Z,40.34
2022-12-18T13:30:55.626Z,39.20
2022-12-18T13:31:52.096Z,41.96
2022-12-18T13:32:52.147Z,38.55
2022-12-18T13:34:52.060Z,40.81
2022-12-18T13:35:52.163Z,36.41
2022-12-18T13:36:53.142Z,40.24
2022-12-18T13:37:52.110Z,43.13
2022-12-18T13:38:52.139Z,41.32
2022-12-18T13:39:52.085Z,37.46
2022-12-18T13:41:52.122Z,37.19
2022-12-18T13:42:52.091Z,36.95
2022-12-18T13:43:52.151Z,37.53
2022-12-18T13:44:52.130Z,38.87
2022-12-18T13:45:52.155Z,40.49
2022-12-18T13:46:52.111Z,39.38
2022-12-18T13:47:52.105Z,43.16
2022-12-18T13:48:52.185Z,41.47
2022-12-18T13:50:52.146Z,40.52
2022-12-18T13:51:52.139Z,39.14
2022-12-18T13:52:52.133Z,38.98
2022-12-18T13:53:52.175Z,41.32
2022-12-18T13:54:52.159Z,41.22
2022-12-18T13:55:52.151Z,41.16
2022-12-18T13:56:52.144Z,40.94
2022-12-18T13:57:52.149Z,42.74
2022-12-18T13:58:52.201Z,39.18
2022-12-18T13:59:52.159Z,39.01
2022-12-18T14:00:52.322Z,39.16
2022-12-18T14:01:52.367Z,38.04
2022-12-18T14:02:52.302Z,37.89
2022-12-18T14:04:52.176Z,38.29
2022-12-18T14:05:52.203Z,42.15
2022-12-18T14:07:52.142Z,37.89
2022-12-18T14:08:52.202Z,39.75
2022-12-18T14:09:55.485Z,39.74
2022-12-18T14:10:52.253Z,38.74
2022-12-18T14:11:52.200Z,39.59
2022-12-18T14:12:52.204Z,40.31
2022-12-18T14:14:54.934Z,41.27
2022-12-18T14:15:52.232Z,43.50
2022-12-18T14:16:52.265Z,40.41
2022-12-18T14:17:52.187Z,38.92
2022-12-18T14:18:52.241Z,40.08
2022-12-18T14:19:52.191Z,39.83
2022-12-18T14:20:52.840Z,40.25
2022-12-18T14:21:52.213Z,38.09
2022-12-18T14:22:52.174Z,42.07
2022-12-18T14:23:52.202Z,40.79
2022-12-18T14:24:52.199Z,39.54
2022-12-18T14:25:52.217Z,38.86
2022-12-18T14:26:52.202Z,38.04
2022-12-18T14:27:52.218Z,39.97
2022-12-18T14:28:52.264Z,37.75
2022-12-18T14:29:52.235Z,41.40
2022-12-18T14:30:52.295Z,42.24
2022-12-18T14:31:52.275Z,40.87
2022-12-18T14:32:52.230Z,39.03
2022-12-18T14:33:52.284Z,37.37
2022-12-18T14:34:52.193Z,38.56
2022-12-18T14:35:52.242Z,39.32
2022-12-18T14:36:52.290Z,37.83
2022-12-18T14:37:52.242Z,38.08
2022-12-18T14:38:52.294Z,40.00
2022-12-18T14:39:52.261Z,39.71
2022-12-18T14:40:52.320Z,40.00
2022-12-18T14:41:52.247Z,39.89
2022-12-18T14:42:52.277Z,42.00
2022-12-18T14:43:52.295Z,41.70
2022-12-18T14:45:13.358Z,38.29
2022-12-18T14:45:52.246Z,40.37
2022-12-18T14:46:52.305Z,39.56
2022-12-18T14:47:52.265Z,40.62
2022-12-18T14:48:52.300Z,37.87
2022-12-18T14:49:52.280Z,37.72
2022-12-18T14:50:53.615Z,37.82
2022-12-18T14:52:52.276Z,40.07
2022-12-18T14:53:54.499Z,37.04
2022-12-18T14:54:52.294Z,39.25
2022-12-18T14:55:52.302Z,37.21
2022-12-18T14:56:52.332Z,41.08